Time;durP1;ratioP1;P1;durP2;ratioP2;P2;SDS_P1;SDS_P2;PMS_P1;PMS_P2;Temp;Humidity;BMP_temperature;BMP_pressure;BME280_temperature;BME280_humidity;BME280_pressure;Samples;Min_cycle;Max_cycle;Signal;HPM_P1;HPM_P2
2021/10/20 00:00:18;;;;;;;5.00;4.70;;;8.00;99.90;;;8.78;92.92;98226.09;5202449;28;20304;-56
2021/10/20 00:02:53;;;;;;;5.23;4.83;;;8.00;99.90;;;8.89;92.89;98229.41;5199303;28;20237;-57
2021/10/20 00:05:26;;;;;;;5.60;5.20;;;8.00;99.90;;;8.89;92.43;98226.84;5200839;28;20245;-55
2021/10/20 00:08:01;;;;;;;5.87;5.47;;;8.00;99.90;;;8.87;92.08;98225.84;5200960;28;20288;-55
2021/10/20 00:10:36;;;;;;;4.97;4.57;;;7.90;99.90;;;8.82;92.94;98228.09;5210427;28;20573;-55
2021/10/20 00:13:09;;;;;;;4.87;4.57;;;8.00;99.90;;;8.70;92.84;98224.66;5204453;28;20296;-56
2021/10/20 00:15:43;;;;;;;5.07;4.67;;;7.90;99.90;;;8.70;93.51;98224.66;5202251;28;20226;-59
2021/10/20 00:18:17;;;;;;;4.73;4.37;;;7.90;99.90;;;8.67;93.40;98219.38;5200147;28;20744;-58
2021/10/20 00:20:51;;;;;;;5.20;4.80;;;7.80;99.90;;;8.63;93.25;98217.38;5203266;28;20194;-56
2021/10/20 00:23:24;;;;;;;4.80;4.40;;;7.80;99.90;;;8.59;92.91;98216.31;5200711;28;20194;-60
2021/10/20 00:25:58;;;;;;;5.43;5.03;;;7.80;99.90;;;8.61;92.54;98209.63;5198574;28;20240;-55
2021/10/20 00:28:31;;;;;;;5.73;5.33;;;7.80;99.90;;;8.67;92.53;98207.53;5201993;28;20646;-56
2021/10/20 00:31:06;;;;;;;5.63;5.23;;;7.80;99.90;;;8.62;92.48;98208.00;5200316;28;20217;-55
2021/10/20 00:33:39;;;;;;;5.43;5.03;;;7.80;99.90;;;8.64;92.68;98208.97;5202784;28;20700;-52
2021/10/20 00:36:12;;;;;;;4.97;4.47;;;7.70;99.90;;;8.59;92.34;98208.66;5200666;28;20308;-55
2021/10/20 00:38:46;;;;;;;5.37;4.97;;;7.70;99.90;;;8.57;92.83;98205.09;5203000;28;20318;-57
2021/10/20 00:41:19;;;;;;;5.43;5.03;;;7.70;99.90;;;8.52;92.34;98199.69;5199886;28;20296;-54
2021/10/20 00:43:52;;;;;;;4.90;4.50;;;7.60;99.90;;;8.45;92.13;98194.06;5204346;28;20614;-58
2021/10/20 00:46:31;;;;;;;4.83;4.53;;;7.60;99.90;;;8.46;92.33;98189.06;5200898;28;20204;-54
2021/10/20 00:49:04;;;;;;;5.30;4.90;;;7.60;99.90;;;8.43;92.64;98181.19;5206110;28;20197;-51
2021/10/20 00:51:38;;;;;;;4.80;4.40;;;7.60;99.90;;;8.45;92.53;98182.22;5201911;28;20678;-58
2021/10/20 00:54:11;;;;;;;5.10;4.70;;;7.60;99.90;;;8.46;92.53;98180.53;5202047;28;20206;-54
2021/10/20 00:56:45;;;;;;;5.83;5.30;;;7.60;99.90;;;8.45;92.55;98179.66;5201265;28;20217;-56
2021/10/20 00:59:18;;;;;;;6.10;5.50;;;7.50;99.90;;;8.47;92.54;98173.03;5205816;28;20198;-53
2021/10/20 01:01:52;;;;;;;6.00;5.50;;;7.60;99.90;;;8.46;92.11;98181.41;5204735;28;20233;-52
2021/10/20 01:04:26;;;;;;;5.80;5.30;;;7.60;99.90;;;8.41;92.08;98171.69;5206889;28;20561;-57
2021/10/20 01:06:59;;;;;;;5.53;5.03;;;7.50;99.90;;;8.39;91.78;98169.03;5204680;28;20202;-53
2021/10/20 01:09:32;;;;;;;5.77;5.27;;;7.50;99.90;;;8.35;92.09;98167.00;5203703;28;20206;-55
2021/10/20 01:12:07;;;;;;;5.60;5.20;;;7.50;99.90;;;8.33;92.23;98168.59;5204182;28;20723;-58
2021/10/20 01:14:41;;;;;;;5.73;5.23;;;7.50;99.90;;;8.35;91.83;98167.91;5206684;28;20280;-52
2021/10/20 01:17:15;;;;;;;5.90;5.43;;;7.50;99.90;;;8.33;91.66;98161.81;5202374;28;20218;-54
2021/10/20 01:19:48;;;;;;;5.37;4.97;;;7.40;99.90;;;8.30;91.86;98169.25;5207028;28;20193;-58
2021/10/20 01:22:23;;;;;;;5.13;4.63;;;7.40;99.90;;;8.28;91.86;98164.81;5202597;28;20218;-59
2021/10/20 01:24:56;;;;;;;5.43;5.03;;;7.40;99.90;;;8.28;91.54;98158.06;5204623;28;20215;-58
2021/10/20 01:27:30;;;;;;;6.00;5.50;;;7.40;99.90;;;8.21;91.70;98157.50;5206213;28;20662;-56
2021/10/20 01:30:06;;;;;;;5.80;5.40;;;7.40;99.90;;;8.13;92.16;98155.31;5206012;28;20197;-57
2021/10/20 01:32:39;;;;;;;5.40;5.00;;;7.30;99.90;;;8.13;91.78;98152.78;5204929;28;20598;-54
2021/10/20 01:35:13;;;;;;;5.27;4.77;;;7.30;99.90;;;8.12;91.69;98145.00;5211235;28;20713;-53
2021/10/20 01:37:47;;;;;;;5.50;5.00;;;7.30;99.90;;;8.07;91.57;98133.66;5207449;28;20292;-53
2021/10/20 01:40:20;;;;;;;5.00;4.70;;;7.20;99.90;;;8.03;92.15;98131.63;5204640;28;20649;-53
2021/10/20 01:42:54;;;;;;;5.60;5.10;;;7.20;99.90;;;8.07;91.54;98131.97;5202864;28;20221;-55
2021/10/20 01:45:27;;;;;;;5.93;5.33;;;7.20;99.90;;;8.05;91.92;98125.00;5203809;28;20285;-56
2021/10/20 01:48:00;;;;;;;6.00;5.50;;;7.20;99.90;;;8.04;92.51;98124.13;5204571;28;20216;-58
2021/10/20 01:50:33;;;;;;;6.67;6.07;;;7.30;99.90;;;8.03;93.77;98114.69;5205562;28;20197;-55
2021/10/20 01:53:08;;;;;;;7.40;6.70;;;7.30;99.90;;;8.07;93.52;98116.72;5202910;28;20222;-58
2021/10/20 01:55:41;;;;;;;6.07;5.60;;;7.30;99.90;;;8.03;94.53;98104.53;5205848;28;20296;-56
2021/10/20 01:58:14;;;;;;;7.60;6.80;;;7.30;99.90;;;8.01;94.27;98098.47;5203494;28;20202;-58
2021/10/20 02:00:47;;;;;;;7.60;6.90;;;7.30;99.90;;;8.03;94.67;98091.78;5201468;28;20198;-56
2021/10/20 02:03:21;;;;;;;8.50;7.80;;;7.30;99.90;;;8.04;94.98;98091.03;5205234;28;20229;-53
2021/10/20 02:05:54;;;;;;;8.63;7.83;;;7.40;99.90;;;8.10;95.08;98082.94;5205088;28;20205;-56
2021/10/20 02:08:29;;;;;;;7.83;7.13;;;7.40;99.90;;;8.09;95.04;98076.06;5203559;28;20202;-57
2021/10/20 02:11:02;;;;;;;8.07;7.00;;;7.40;99.90;;;8.10;95.06;98077.84;5198214;28;20767;-58
2021/10/20 02:13:35;;;;;;;8.87;8.07;;;7.40;99.90;;;8.16;95.18;98072.31;5207716;28;20198;-56
2021/10/20 02:16:09;;;;;;;9.27;8.37;;;7.40;99.90;;;8.16;95.44;98068.09;5202072;28;20320;-55
2021/10/20 02:18:42;;;;;;;8.83;8.03;;;7.40;99.90;;;8.12;95.78;98061.88;5202895;28;20194;-59
2021/10/20 02:21:17;;;;;;;8.23;7.50;;;7.40;99.90;;;8.17;95.68;98061.34;5204435;28;20324;-56
2021/10/20 02:23:52;;;;;;;7.20;6.57;;;7.40;99.90;;;8.17;95.17;98054.56;5202264;28;20204;-55
2021/10/20 02:26:25;;;;;;;6.83;6.13;;;7.40;99.90;;;8.16;93.94;98050.28;5205689;28;20194;-57
2021/10/20 02:28:58;;;;;;;6.10;5.60;;;7.30;99.90;;;8.15;93.65;98045.06;5202677;28;21033;-53
2021/10/20 02:31:31;;;;;;;5.83;5.30;;;7.20;99.90;;;8.09;92.92;98042.97;5204116;28;20572;-55
2021/10/20 02:34:04;;;;;;;5.93;5.43;;;7.20;99.90;;;8.07;92.53;98036.91;5204126;28;20248;-57
2021/10/20 02:36:37;;;;;;;7.20;6.60;;;7.10;99.90;;;7.96;92.27;98032.75;5201845;28;20217;-56
2021/10/20 02:39:12;;;;;;;7.07;6.40;;;7.00;99.90;;;7.90;92.53;98028.09;5202955;28;20292;-55
2021/10/20 02:41:45;;;;;;;6.80;6.10;;;7.00;99.90;;;7.87;92.25;98022.81;5204486;28;20221;-52
2021/10/20 02:44:19;;;;;;;8.60;7.73;;;7.00;99.90;;;7.90;91.78;98028.09;5204108;28;20212;-56
2021/10/20 02:46:52;;;;;;;10.40;7.93;;;7.00;99.90;;;7.83;91.74;98025.88;5201150;28;20206;-56
2021/10/20 02:49:25;;;;;;;8.77;7.87;;;6.90;99.90;;;7.79;91.79;98029.00;5203685;28;20204;-55
2021/10/20 02:51:58;;;;;;;8.27;7.53;;;6.90;99.90;;;7.75;91.55;98021.91;5202730;28;20308;-61
2021/10/20 02:54:33;;;;;;;8.33;7.63;;;6.90;99.90;;;7.73;91.82;98015.88;5204314;28;20208;-55
2021/10/20 02:57:06;;;;;;;7.27;6.57;;;6.80;99.90;;;7.72;91.85;98025.13;5204362;28;20561;-55
2021/10/20 02:59:39;;;;;;;8.20;7.40;;;6.80;99.90;;;7.70;92.24;98019.06;5204834;28;20204;-58
2021/10/20 03:02:12;;;;;;;10.10;8.17;;;6.80;99.90;;;7.64;91.95;98029.69;5202448;28;20233;-59
2021/10/20 03:04:47;;;;;;;9.70;8.13;;;6.80;99.90;;;7.63;91.81;98033.00;5204368;28;20202;-55
2021/10/20 03:07:20;;;;;;;8.27;7.07;;;6.80;99.90;;;7.64;91.58;98032.25;5204046;28;20280;-57
2021/10/20 03:09:54;;;;;;;7.80;6.53;;;6.70;99.90;;;7.58;91.69;98033.44;5201820;28;20288;-55
2021/10/20 03:12:27;;;;;;;6.60;6.00;;;6.70;99.90;;;7.52;91.54;98028.81;5203595;28;20212;-57
2021/10/20 03:15:00;;;;;;;7.27;6.50;;;6.60;99.90;;;7.45;92.18;98031.69;5203756;28;20237;-54
2021/10/20 03:17:34;;;;;;;6.40;5.80;;;6.60;99.90;;;7.51;91.74;98027.03;5201151;28;20312;-54
2021/10/20 03:20:09;;;;;;;7.37;6.70;;;6.60;99.90;;;7.48;92.27;98026.81;5203026;28;20220;-56
2021/10/20 03:22:45;;;;;;;6.47;5.97;;;6.60;99.90;;;7.39;91.82;98016.00;5201561;28;20225;-56
2021/10/20 03:25:19;;;;;;;6.80;6.20;;;6.60;99.90;;;7.38;92.15;98022.75;5202968;28;20231;-57
2021/10/20 03:27:53;;;;;;;5.23;4.83;;;6.60;99.90;;;7.31;92.36;98012.91;5204392;28;20201;-56
2021/10/20 03:30:26;;;;;;;6.47;5.93;;;6.50;99.90;;;7.26;92.92;98023.50;5203579;28;20209;-56
2021/10/20 03:32:59;;;;;;;5.53;5.03;;;6.50;99.90;;;7.25;92.41;98014.13;5203741;28;20225;-56
2021/10/20 03:35:32;;;;;;;5.50;5.10;;;6.50;99.90;;;7.28;92.48;98011.81;5202827;28;20207;-56
2021/10/20 03:38:06;;;;;;;6.03;5.63;;;6.50;99.90;;;7.27;92.24;98004.94;5204801;28;20248;-59
2021/10/20 03:40:41;;;;;;;6.33;5.73;;;6.50;99.90;;;7.25;93.13;98006.50;5201543;28;20205;-57
2021/10/20 03:43:34;;;;;;;7.10;6.43;;;6.50;99.90;;;7.19;92.95;98005.28;5202319;28;20213;-57
2021/10/20 03:46:08;;;;;;;6.37;5.87;;;6.40;99.90;;;7.14;92.57;98004.06;5204504;28;20240;-53
2021/10/20 03:48:41;;;;;;;7.20;6.60;;;6.40;99.90;;;7.14;93.52;98001.50;5201009;28;20198;-56
2021/10/20 03:51:14;;;;;;;6.87;6.30;;;6.40;99.90;;;7.18;93.07;97989.91;5204293;28;20218;-53
2021/10/20 03:53:47;;;;;;;6.93;6.43;;;6.50;99.90;;;7.23;93.78;97988.59;5201427;28;20205;-62
2021/10/20 03:56:22;;;;;;;6.67;6.17;;;6.50;99.90;;;7.26;93.79;97982.84;5203794;28;20194;-54
2021/10/20 03:58:55;;;;;;;6.40;5.80;;;6.50;99.90;;;7.28;94.07;97981.28;5203205;28;20280;-55
2021/10/20 04:01:28;;;;;;;6.43;5.83;;;6.50;99.90;;;7.30;94.48;97979.75;5203669;28;20234;-58
2021/10/20 04:04:01;;;;;;;7.43;6.73;;;6.50;99.90;;;7.25;94.46;97976.00;5201885;28;20210;-60
2021/10/20 04:06:34;;;;;;;8.30;7.60;;;6.60;99.90;;;7.28;95.15;97976.22;5201935;28;20201;-54
2021/10/20 04:09:07;;;;;;;8.13;7.20;;;6.50;99.90;;;7.30;95.39;97967.03;5198536;28;20212;-58
2021/10/20 04:11:42;;;;;;;9.27;8.37;;;6.50;99.90;;;7.28;94.75;97968.59;5201711;28;20213;-54
2021/10/20 04:14:15;;;;;;;9.33;8.33;;;6.60;99.90;;;7.28;95.36;97960.97;5203547;28;20224;-52
2021/10/20 04:16:48;;;;;;;9.50;8.70;;;6.60;99.90;;;7.30;95.56;97956.88;5198947;28;20675;-57
2021/10/20 04:19:21;;;;;;;9.67;8.77;;;6.60;99.90;;;7.27;94.84;97949.91;5204941;28;20236;-54
2021/10/20 04:21:54;;;;;;;10.27;9.37;;;6.50;99.90;;;7.30;94.65;97939.97;5206408;28;20316;-58
2021/10/20 04:24:27;;;;;;;9.37;8.67;;;6.50;99.90;;;7.23;94.44;97946.25;5208804;28;20208;-54
2021/10/20 04:27:02;;;;;;;9.90;9.00;;;6.50;99.90;;;7.28;94.65;97941.50;5206307;28;20206;-59
2021/10/20 04:29:35;;;;;;;9.20;8.37;;;6.50;99.90;;;7.27;94.60;97949.00;5205508;28;20193;-61
2021/10/20 04:32:09;;;;;;;8.77;8.00;;;6.50;99.90;;;7.27;95.22;97946.47;5203147;28;20226;-56
2021/10/20 04:34:42;;;;;;;8.33;7.60;;;6.50;99.90;;;7.28;95.35;97945.72;5204842;28;20205;-62
2021/10/20 04:37:15;;;;;;;8.67;7.87;;;6.60;99.90;;;7.28;95.59;97945.72;5205185;28;20236;-55
2021/10/20 04:39:49;;;;;;;8.23;7.47;;;6.60;99.90;;;7.28;94.55;97941.50;5204185;28;20200;-57
2021/10/20 04:42:24;;;;;;;8.07;7.27;;;6.50;99.90;;;7.30;93.97;97934.88;5206664;28;20217;-58
2021/10/20 04:44:58;;;;;;;8.80;7.93;;;6.40;99.90;;;7.23;94.54;97928.44;5206176;28;20202;-54
2021/10/20 04:47:31;;;;;;;8.27;7.67;;;6.50;99.90;;;7.17;94.31;97938.19;5198679;28;20285;-53
2021/10/20 04:50:07;;;;;;;7.47;6.87;;;6.40;99.90;;;7.15;93.80;97929.59;5204454;28;20209;-58
2021/10/20 04:52:40;;;;;;;7.10;6.60;;;6.30;99.90;;;7.15;92.91;97928.69;5202638;28;20789;-55
2021/10/20 04:55:14;;;;;;;7.00;6.50;;;6.30;99.90;;;7.08;92.51;97935.00;5204959;28;20204;-58
2021/10/20 04:57:53;;;;;;;7.50;6.73;;;6.20;99.90;;;7.05;92.43;97939.88;5206295;28;20221;-59
2021/10/20 05:00:26;;;;;;;7.17;6.57;;;6.20;99.90;;;7.02;92.30;97932.03;5199264;28;20681;-54
2021/10/20 05:02:59;;;;;;;7.20;6.50;;;6.20;99.90;;;7.06;92.45;97935.66;5206239;28;20244;-59
2021/10/20 05:05:32;;;;;;;7.23;6.67;;;6.20;99.90;;;6.99;92.43;97931.81;5205048;28;20590;-52
2021/10/20 05:08:05;;;;;;;6.73;6.20;;;6.10;99.90;;;6.93;92.26;97934.78;5205171;28;20280;-58
2021/10/20 05:10:39;;;;;;;7.27;6.63;;;6.10;99.90;;;6.95;91.97;97929.78;5206028;28;20292;-56
2021/10/20 05:13:14;;;;;;;7.20;6.70;;;6.10;99.90;;;6.94;92.11;97928.03;5205017;28;20248;-53
2021/10/20 05:15:47;;;;;;;8.00;7.20;;;6.10;99.90;;;6.91;91.69;97931.25;5208079;28;20285;-54
2021/10/20 05:18:20;;;;;;;7.23;6.63;;;6.10;99.90;;;6.87;91.85;97930.94;5206275;28;20221;-53
2021/10/20 05:20:53;;;;;;;7.50;6.87;;;6.10;99.90;;;6.83;92.00;97926.38;5207442;28;20202;-55
2021/10/20 05:23:26;;;;;;;7.67;7.07;;;6.10;99.90;;;6.85;92.19;97924.84;5204038;28;20196;-55
2021/10/20 05:26:00;;;;;;;7.60;7.00;;;6.00;99.90;;;6.79;91.96;97921.88;5204486;28;20198;-52
2021/10/20 05:28:35;;;;;;;6.30;5.80;;;6.00;99.90;;;6.76;91.45;97925.94;5200912;28;20204;-54
2021/10/20 05:31:08;;;;;;;6.87;6.27;;;6.00;99.90;;;6.70;91.45;97928.03;5199147;28;20324;-55
2021/10/20 05:33:41;;;;;;;6.67;6.07;;;5.90;99.90;;;6.72;91.95;97923.06;5204967;28;20205;-54
2021/10/20 05:36:14;;;;;;;7.27;6.77;;;5.90;99.90;;;6.61;92.22;97914.69;5200782;28;20209;-54
2021/10/20 05:38:48;;;;;;;6.63;6.10;;;5.90;99.90;;;6.61;93.10;97926.47;5195795;28;20221;-55
2021/10/20 05:41:21;;;;;;;7.10;6.50;;;5.90;99.90;;;6.62;92.94;97907.94;5195574;28;20224;-58
2021/10/20 05:43:56;;;;;;;6.63;6.13;;;5.90;99.90;;;6.56;93.42;97916.00;5197331;28;20209;-53
2021/10/20 05:46:29;;;;;;;7.03;6.47;;;5.80;99.90;;;6.62;93.95;97902.84;5198968;28;20610;-60
2021/10/20 05:49:02;;;;;;;7.30;6.70;;;6.00;99.90;;;6.66;94.07;97900.63;5199777;28;20190;-55
2021/10/20 05:51:35;;;;;;;6.73;6.23;;;6.00;99.90;;;6.68;94.12;97909.25;5199645;28;20590;-51
2021/10/20 05:54:08;;;;;;;7.47;6.87;;;6.00;99.90;;;6.70;94.63;97909.38;5197102;28;20216;-56
2021/10/20 05:56:41;;;;;;;6.63;6.13;;;6.10;99.90;;;6.76;94.44;97910.69;5197146;28;20200;-56
2021/10/20 05:59:21;;;;;;;6.87;6.20;;;6.10;99.90;;;6.82;94.14;97917.00;5198038;28;20226;-60
2021/10/20 06:01:54;;;;;;;8.10;7.30;;;6.10;99.90;;;6.82;93.37;97915.34;5198587;28;20298;-53
2021/10/20 06:04:27;;;;;;;8.47;7.77;;;6.00;99.90;;;6.84;93.31;97910.34;5197918;28;20205;-55
2021/10/20 06:07:00;;;;;;;8.83;8.13;;;6.00;99.90;;;6.91;91.87;97912.59;5205759;28;20198;-52
2021/10/20 06:09:34;;;;;;;7.83;7.23;;;6.00;99.90;;;6.94;91.00;97918.75;5206509;28;20650;-54
2021/10/20 06:12:07;;;;;;;8.87;8.07;;;6.00;99.90;;;6.85;91.93;97923.19;5205368;28;20313;-51
2021/10/20 06:14:42;;;;;;;6.93;6.23;;;6.00;99.90;;;6.87;91.38;97921.66;5205314;28;20657;-52
2021/10/20 06:17:15;;;;;;;7.30;6.70;;;6.00;99.90;;;6.92;92.66;97925.38;5205271;28;20311;-52
2021/10/20 06:19:49;;;;;;;7.00;6.40;;;6.10;99.90;;;7.05;92.98;97914.44;5207736;28;20244;-56
2021/10/20 06:22:22;;;;;;;6.73;6.13;;;6.30;99.90;;;7.21;92.09;97914.78;5202671;28;20300;-54
2021/10/20 06:24:55;;;;;;;7.13;6.20;;;6.40;99.90;;;7.35;91.56;97915.72;5206466;28;20213;-55
2021/10/20 06:27:28;;;;;;;6.63;6.13;;;6.50;99.90;;;7.55;91.22;97919.66;5204051;28;20224;-55
2021/10/20 06:30:03;;;;;;;6.77;6.17;;;6.70;99.90;;;7.72;91.25;97914.84;5206055;28;20289;-53
2021/10/20 06:32:37;;;;;;;6.53;6.03;;;6.90;99.90;;;7.93;90.97;97903.63;5204433;28;20221;-55
2021/10/20 06:35:11;;;;;;;6.70;6.20;;;7.20;99.90;;;8.22;90.78;97917.41;5202655;28;20298;-56
2021/10/20 06:37:48;;;;;;;8.10;7.23;;;7.40;99.90;;;8.37;89.12;97909.91;5203717;28;20292;-54
2021/10/20 06:40:21;;;;;;;7.40;6.73;;;7.60;99.90;;;8.56;88.17;97911.25;5207422;28;20201;-53
2021/10/20 06:42:54;;;;;;;7.57;6.87;;;7.70;99.90;;;8.79;87.87;97911.88;5205311;28;20304;-54
2021/10/20 06:45:29;;;;;;;8.50;7.10;;;7.90;99.90;;;9.08;86.41;97910.31;5204059;28;20552;-56
2021/10/20 06:48:02;;;;;;;7.70;7.00;;;8.10;99.90;;;9.19;84.50;97904.22;5203246;28;20906;-54
2021/10/20 06:50:35;;;;;;;7.00;6.50;;;8.30;99.90;;;9.22;84.07;97906.97;5203471;28;20198;-56
2021/10/20 06:53:08;;;;;;;7.30;6.60;;;8.30;99.90;;;9.35;84.10;97912.03;5205154;28;20573;-55
2021/10/20 06:55:41;;;;;;;7.20;6.53;;;8.50;99.90;;;9.57;82.63;97923.56;5205227;28;20201;-53
2021/10/20 06:58:15;;;;;;;6.83;6.33;;;8.70;99.90;;;9.81;81.55;97919.94;5204777;28;20221;-54
2021/10/20 07:00:49;;;;;;;7.33;6.60;;;8.80;99.90;;;9.92;81.30;97911.28;5204924;28;20563;-52
2021/10/20 07:03:22;;;;;;;7.20;6.23;;;9.00;99.90;;;9.98;81.09;97917.53;5205314;28;20228;-55
2021/10/20 07:05:56;;;;;;;8.07;6.83;;;9.10;99.90;;;10.18;79.99;97916.19;5205812;28;20244;-54
2021/10/20 07:08:29;;;;;;;8.03;7.23;;;9.20;99.90;;;10.31;80.39;97919.59;5204700;28;20285;-53
2021/10/20 07:11:03;;;;;;;7.20;6.60;;;9.40;99.90;;;10.48;79.88;97907.81;5206050;28;20228;-54
2021/10/20 07:13:36;;;;;;;8.88;7.28;;;9.60;99.90;;;10.73;79.44;97907.56;5205893;28;20721;-55
2021/10/20 07:16:10;;;;;;;8.15;7.45;;;9.90;99.90;;;11.11;79.00;97903.69;5205246;28;20210;-53
2021/10/20 07:18:44;;;;;;;8.38;7.63;;;10.20;99.90;;;11.35;76.85;97909.28;5206977;28;20217;-54
2021/10/20 07:21:17;;;;;;;7.45;6.80;;;10.40;99.90;;;11.52;75.10;97907.63;5204578;28;20230;-56
2021/10/20 07:23:50;;;;;;;10.02;8.77;;;10.70;99.90;;;11.52;74.46;97906.75;5205023;28;20197;-57
2021/10/20 07:26:23;;;;;;;9.30;8.40;;;10.70;99.90;;;11.45;74.74;97900.44;5204910;28;20571;-55
2021/10/20 07:28:56;;;;;;;9.52;8.55;;;10.50;99.90;;;11.59;75.67;97906.28;5204951;28;20198;-53
2021/10/20 07:31:30;;;;;;;8.88;7.97;;;10.70;99.90;;;11.73;75.03;97902.78;5204469;28;20313;-54
2021/10/20 07:34:04;;;;;;;8.75;7.95;;;10.80;99.90;;;11.87;74.41;97898.41;5204337;28;20204;-53
2021/10/20 07:36:38;;;;;;;11.00;8.57;;;10.80;99.90;;;11.84;74.16;97896.53;5204340;28;20212;-58
2021/10/20 07:39:12;;;;;;;9.18;8.02;;;10.90;99.90;;;11.95;74.81;97894.59;5203994;28;20225;-52
2021/10/20 07:41:45;;;;;;;8.70;7.53;;;10.90;99.90;;;12.06;73.63;97883.22;5204338;28;20296;-55
2021/10/20 07:44:18;;;;;;;8.75;7.93;;;11.10;99.90;;;12.06;73.76;97885.78;5207592;28;20199;-56
2021/10/20 07:46:53;;;;;;;8.30;7.60;;;11.10;99.90;;;12.21;73.67;97872.88;5203145;28;20650;-57
2021/10/20 07:49:26;;;;;;;8.02;7.22;;;11.20;99.90;;;12.31;73.79;97874.22;5204678;28;20195;-58
2021/10/20 07:51:59;;;;;;;9.50;7.93;;;11.30;99.90;;;12.21;74.30;97867.75;5204453;28;20213;-55
2021/10/20 07:54:32;;;;;;;7.32;6.70;;;11.30;99.90;;;12.03;74.17;97871.94;5204389;28;20197;-56
2021/10/20 07:57:06;;;;;;;8.30;7.50;;;11.10;99.90;;;12.00;75.34;97866.66;5203090;28;20198;-55
2021/10/20 07:59:39;;;;;;;8.82;7.93;;;11.00;99.90;;;12.24;75.42;97867.00;5203818;28;20316;-55
2021/10/20 08:02:14;;;;;;;9.15;8.25;;;11.20;99.90;;;12.47;75.02;97865.59;5204345;28;20225;-52
2021/10/20 08:04:47;;;;;;;9.10;7.82;;;11.50;99.90;;;12.65;74.79;97856.25;5204318;28;20628;-56
2021/10/20 08:07:20;;;;;;;9.18;7.65;;;11.70;99.90;;;12.91;73.59;97857.53;5203670;28;20206;-58
2021/10/20 08:09:53;;;;;;;8.88;7.97;;;12.00;99.90;;;13.15;72.81;97850.09;5203965;28;20194;-58
2021/10/20 08:12:26;;;;;;;9.13;8.07;;;12.30;99.90;;;13.37;73.29;97835.72;5204343;28;20232;-53
2021/10/20 08:15:02;;;;;;;8.65;7.70;;;12.50;99.90;;;13.30;70.60;97831.97;5204229;28;20292;-55
2021/10/20 08:17:36;;;;;;;8.45;7.32;;;12.50;99.90;;;13.28;72.41;97825.91;5203041;28;20189;-53
2021/10/20 08:20:12;;;;;;;7.90;7.10;;;12.50;99.90;;;13.27;72.65;97821.56;5204782;28;20575;-57
2021/10/20 08:22:46;;;;;;;8.65;7.50;;;12.50;99.90;;;13.40;73.38;97815.31;5196290;28;20223;-55
2021/10/20 08:25:19;;;;;;;8.40;7.18;;;12.60;99.90;;;13.54;73.59;97821.09;5203374;28;20292;-58
2021/10/20 08:27:52;;;;;;;9.68;7.47;;;12.80;99.90;;;13.66;72.92;97825.06;5200425;28;20233;-57
2021/10/20 08:30:25;;;;;;;9.20;8.05;;;13.00;99.90;;;14.03;72.33;97818.97;5205732;28;20729;-56
2021/10/20 08:33:00;;;;;;;8.07;7.32;;;13.40;99.90;;;14.35;71.98;97819.44;5204247;28;20222;-56
2021/10/20 08:35:33;;;;;;;9.88;7.78;;;13.70;99.90;;;14.69;71.56;97823.44;5204304;28;20205;-57
2021/10/20 08:38:07;;;;;;;9.38;7.97;;;14.00;99.90;;;14.89;70.48;97806.22;5204156;28;20293;-56
2021/10/20 08:40:45;;;;;;;8.50;7.65;;;14.20;99.90;;;15.04;69.64;97799.06;5203437;28;20260;-57
2021/10/20 08:43:20;;;;;;;8.02;7.25;;;14.40;99.90;;;15.20;69.97;97806.56;5204307;28;20237;-57
2021/10/20 08:45:53;;;;;;;10.60;7.38;;;14.60;99.90;;;15.39;69.02;97817.53;5203549;28;20206;-54
2021/10/20 08:48:30;;;;;;;8.15;7.30;;;14.80;99.90;;;15.50;70.08;97811.09;5202051;28;20194;-56
2021/10/20 08:51:04;;;;;;;7.90;7.03;;;14.90;99.90;;;15.79;68.32;97809.59;5204109;28;20305;-58
2021/10/20 08:53:38;;;;;;;7.55;6.32;;;15.20;99.90;;;16.06;67.33;97809.72;5203393;28;20298;-56
2021/10/20 08:56:13;;;;;;;8.02;7.07;;;15.50;99.90;;;16.37;67.73;97815.94;5203333;28;20204;-56
2021/10/20 08:58:51;;;;;;;8.63;7.18;;;15.70;99.90;;;16.55;66.52;97803.63;5203330;28;20205;-57
2021/10/20 09:01:24;;;;;;;7.70;7.00;;;15.80;99.90;;;16.71;66.40;97810.16;5216574;22;20233;-63
2021/10/20 09:04:05;;;;;;;9.65;7.30;;;16.00;99.90;;;16.76;64.92;97805.13;5183473;28;20198;-62
2021/10/20 09:06:38;;;;;;;7.82;6.82;;;16.10;99.90;;;16.70;65.09;97804.94;5183255;28;20206;-63
2021/10/20 09:09:13;;;;;;;8.10;7.18;;;16.00;99.90;;;16.72;65.40;97803.28;5187616;28;20289;-63
2021/10/20 09:11:46;;;;;;;7.40;6.78;;;16.00;99.90;;;16.85;65.67;97790.88;5187315;28;20217;-63
2021/10/20 09:14:20;;;;;;;7.20;6.60;;;16.00;99.90;;;16.89;65.05;97790.13;5185457;28;20195;-63
2021/10/20 09:16:53;;;;;;;7.22;6.53;;;16.00;99.90;;;16.88;65.78;97784.88;5186223;28;20524;-62
2021/10/20 09:19:31;;;;;;;6.70;6.10;;;16.10;99.90;;;16.83;65.87;97779.59;5187420;28;20577;-63
2021/10/20 09:22:08;;;;;;;6.20;5.70;;;16.10;99.90;;;16.93;64.20;97778.16;5187206;28;20776;-63
2021/10/20 09:24:44;;;;;;;7.65;5.93;;;16.30;99.90;;;17.09;61.92;97772.66;5184770;28;20206;-63
2021/10/20 09:27:24;;;;;;;6.03;5.47;;;16.50;99.90;;;17.29;61.29;97782.69;5186704;28;20737;-63
2021/10/20 09:30:10;;;;;;;6.50;6.00;;;16.60;99.90;;;17.44;61.64;97772.81;5183554;28;20195;-63
2021/10/20 09:32:44;;;;;;;6.45;5.85;;;16.90;99.90;;;17.64;62.07;97762.16;5183913;28;20190;-62
2021/10/20 09:35:20;;;;;;;6.55;5.95;;;17.00;99.90;;;17.74;62.03;97761.56;5186283;28;20325;-63
2021/10/20 09:37:58;;;;;;;7.40;6.55;;;17.00;99.90;;;17.91;61.70;97755.19;5186792;28;20233;-64
2021/10/20 09:40:38;;;;;;;6.85;6.25;;;17.20;99.90;;;17.96;61.76;97756.16;5186836;28;20268;-63
2021/10/20 09:43:15;;;;;;;7.10;5.70;;;17.30;99.90;;;18.06;61.90;97740.91;5183817;28;20194;-63
2021/10/20 09:45:49;;;;;;;7.68;5.93;;;17.40;99.90;;;18.29;60.84;97728.53;5186777;28;20293;-62
2021/10/20 09:48:25;;;;;;;5.30;4.90;;;17.50;99.90;;;18.35;60.23;97728.69;5186364;28;20294;-61
2021/10/20 09:51:06;;;;;;;5.35;4.85;;;17.70;99.90;;;18.38;59.10;97729.63;5186590;28;20304;-61
2021/10/20 09:53:43;;;;;;;5.40;4.60;;;17.60;99.90;;;18.35;59.39;97729.56;5186003;28;20230;-61
2021/10/20 09:56:23;;;;;;;5.43;4.93;;;17.50;99.90;;;18.41;59.89;97721.94;5183297;28;20662;-63
2021/10/20 09:58:57;;;;;;;4.78;4.38;;;17.50;99.90;;;18.43;60.20;97715.09;5185936;28;20198;-62
2021/10/20 10:01:30;;;;;;;4.90;4.50;;;17.60;99.90;;;18.65;60.87;97700.03;5185596;28;20218;-63
2021/10/20 10:04:07;;;;;;;7.25;5.32;;;17.80;99.90;;;18.88;58.75;97701.44;5184278;28;20552;-63
2021/10/20 10:06:48;;;;;;;5.22;4.40;;;18.10;99.90;;;18.84;56.93;97693.59;5182826;28;20217;-60
2021/10/20 10:09:36;;;;;;;5.25;4.85;;;18.20;99.90;;;18.96;57.87;97682.63;5183231;28;20203;-62
2021/10/20 10:12:15;;;;;;;4.85;4.32;;;18.30;99.90;;;18.97;55.32;97666.22;5181273;28;20215;-62
2021/10/20 10:14:53;;;;;;;4.65;4.25;;;18.40;99.90;;;19.03;55.81;97684.47;5186414;28;20289;-61
2021/10/20 10:17:49;;;;;;;4.65;4.03;;;18.60;99.90;;;19.14;54.36;97677.81;5183112;28;20203;-64
2021/10/20 10:20:28;;;;;;;4.07;3.78;;;18.60;99.90;;;19.21;54.63;97686.59;5182258;28;20230;-61
2021/10/20 10:23:06;;;;;;;4.15;3.85;;;18.70;99.90;;;19.28;52.92;97678.97;5182383;28;20222;-62
2021/10/20 10:25:42;;;;;;;4.00;3.70;;;18.80;99.90;;;19.39;52.69;97676.59;5183533;28;20204;-62
2021/10/20 10:28:23;;;;;;;3.90;3.60;;;18.90;99.60;;;19.62;52.38;97665.78;5184140;28;20584;-63
2021/10/20 10:31:04;;;;;;;4.03;3.55;;;19.10;99.80;;;19.87;51.52;97669.72;5182377;28;20227;-62
2021/10/20 10:33:52;;;;;;;4.13;3.83;;;19.20;99.30;;;19.96;50.65;97667.28;5180887;28;20285;-63
2021/10/20 10:36:25;;;;;;;5.65;4.05;;;19.30;98.60;;;20.10;50.01;97663.19;5184381;28;20566;-62
2021/10/20 10:39:08;;;;;;;4.78;4.38;;;19.30;98.50;;;20.22;49.31;97658.19;5179618;28;20209;-62
2021/10/20 10:41:45;;;;;;;4.20;3.80;;;19.40;98.10;;;20.15;49.93;97658.94;5183779;28;20229;-62
2021/10/20 10:44:21;;;;;;;4.00;3.70;;;19.40;98.20;;;20.16;49.36;97662.41;5185559;28;20194;-62
2021/10/20 10:47:08;;;;;;;4.45;4.05;;;19.40;97.90;;;20.28;49.67;97656.53;5181975;28;20209;-63
2021/10/20 10:49:46;;;;;;;4.07;3.78;;;19.40;98.10;;;20.30;47.90;97644.47;5185359;28;20230;-62
2021/10/20 10:52:24;;;;;;;3.90;3.50;;;19.40;96.80;;;20.19;48.52;97647.75;5185206;28;20309;-63
2021/10/20 10:55:12;;;;;;;4.03;3.72;;;19.40;97.30;;;20.25;48.80;97655.63;5181419;28;20696;-63
2021/10/20 10:57:52;;;;;;;4.68;3.83;;;19.40;97.20;;;20.26;49.02;97638.38;5179931;28;20198;-62